sensor_id;sensor_type;location;lat;lon;timestamp;pressure;altitude;pressure_sealevel;temperature;humidity
72409;BME280;60402;48.082;11.628;2022-11-15T00:00:11;95254.88;;;2.23;100.00
72409;BME280;60402;48.082;11.628;2022-11-15T00:02:49;95232.16;;;2.03;100.00
72409;BME280;60402;48.082;11.628;2022-11-15T00:05:23;95319.47;;;2.57;100.00
72409;BME280;60402;48.082;11.628;2022-11-15T00:07:54;95251.69;;;2.17;100.00
72409;BME280;60402;48.082;11.628;2022-11-15T00:10:19;95231.75;;;2.01;100.00
72409;BME280;60402;48.082;11.628;2022-11-15T00:12:48;95233.34;;;2.02;100.00
72409;BME280;60402;48.082;11.628;2022-11-15T00:15:16;95293.53;;;2.35;100.00
72409;BME280;60402;48.082;11.628;2022-11-15T00:17:44;95248.09;;;2.13;100.00
72409;BME280;60402;48.082;11.628;2022-11-15T00:20:12;95282.78;;;2.37;100.00
72409;BME280;60402;48.082;11.628;2022-11-15T00:22:38;95231.38;;;2.10;100.00
72409;BME280;60402;48.082;11.628;2022-11-15T00:25:04;95260.06;;;2.24;100.00
72409;BME280;60402;48.082;11.628;2022-11-15T00:27:51;95281.59;;;2.42;100.00
72409;BME280;60402;48.082;11.628;2022-11-15T00:30:19;95263.25;;;2.26;100.00
72409;BME280;60402;48.082;11.628;2022-11-15T00:32:55;95279.97;;;2.30;100.00
72409;BME280;60402;48.082;11.628;2022-11-15T00:35:21;95213.41;;;1.93;100.00
72409;BME280;60402;48.082;11.628;2022-11-15T00:37:51;95244.13;;;2.14;100.00
72409;BME280;60402;48.082;11.628;2022-11-15T00:40:22;95238.91;;;2.02;100.00
72409;BME280;60402;48.082;11.628;2022-11-15T00:42:50;95248.06;;;2.06;100.00
72409;BME280;60402;48.082;11.628;2022-11-15T00:45:18;95260.03;;;2.03;100.00
72409;BME280;60402;48.082;11.628;2022-11-15T00:47:51;95244.09;;;2.00;100.00
72409;BME280;60402;48.082;11.628;2022-11-15T00:50:17;95252.41;;;1.93;100.00
72409;BME280;60402;48.082;11.628;2022-11-15T00:52:49;95208.59;;;1.72;100.00
72409;BME280;60402;48.082;11.628;2022-11-15T00:55:18;95258.03;;;2.03;100.00
72409;BME280;60402;48.082;11.628;2022-11-15T00:57:52;95201.00;;;1.62;100.00
72409;BME280;60402;48.082;11.628;2022-11-15T01:00:20;95244.03;;;1.82;100.00
72409;BME280;60402;48.082;11.628;2022-11-15T01:02:46;95221.75;;;1.75;100.00
72409;BME280;60402;48.082;11.628;2022-11-15T01:05:19;95220.94;;;1.78;100.00
72409;BME280;60402;48.082;11.628;2022-11-15T01:07:44;95275.56;;;2.15;100.00
72409;BME280;60402;48.082;11.628;2022-11-15T01:10:13;95272.38;;;2.05;100.00
72409;BME280;60402;48.082;11.628;2022-11-15T01:12:39;95214.97;;;1.65;100.00
72409;BME280;60402;48.082;11.628;2022-11-15T01:15:05;95225.34;;;1.79;100.00
72409;BME280;60402;48.082;11.628;2022-11-15T01:17:36;95200.22;;;1.61;100.00
72409;BME280;60402;48.082;11.628;2022-11-15T01:20:20;95192.63;;;1.54;100.00
72409;BME280;60402;48.082;11.628;2022-11-15T01:22:51;95181.84;;;1.39;100.00
72409;BME280;60402;48.082;11.628;2022-11-15T01:25:19;95234.88;;;1.71;100.00
72409;BME280;60402;48.082;11.628;2022-11-15T01:27:47;95229.28;;;1.67;100.00
72409;BME280;60402;48.082;11.628;2022-11-15T01:30:18;95187.44;;;1.49;100.00
72409;BME280;60402;48.082;11.628;2022-11-15T01:32:43;95191.47;;;1.63;100.00
72409;BME280;60402;48.082;11.628;2022-11-15T01:35:09;95153.22;;;1.49;100.00
72409;BME280;60402;48.082;11.628;2022-11-15T01:38:03;95247.25;;;2.02;100.00
72409;BME280;60402;48.082;11.628;2022-11-15T01:40:31;95147.63;;;1.38;100.00
72409;BME280;60402;48.082;11.628;2022-11-15T01:43:17;95134.44;;;1.21;100.00
72409;BME280;60402;48.082;11.628;2022-11-15T01:45:51;95177.88;;;1.40;100.00
72409;BME280;60402;48.082;11.628;2022-11-15T01:48:18;95187.03;;;1.47;100.00
72409;BME280;60402;48.082;11.628;2022-11-15T01:50:52;95150.00;;;1.36;100.00
72409;BME280;60402;48.082;11.628;2022-11-15T01:53:21;95219.38;;;1.84;100.00
72409;BME280;60402;48.082;11.628;2022-11-15T01:55:56;95159.19;;;1.54;100.00
72409;BME280;60402;48.082;11.628;2022-11-15T01:58:21;95140.53;;;1.51;99.27
72409;BME280;60402;48.082;11.628;2022-11-15T02:00:55;95126.16;;;1.39;100.00
72409;BME280;60402;48.082;11.628;2022-11-15T02:03:25;95203.47;;;1.95;99.57
72409;BME280;60402;48.082;11.628;2022-11-15T02:05:55;95166.78;;;1.68;100.00
72409;BME280;60402;48.082;11.628;2022-11-15T02:08:25;95146.09;;;1.51;100.00
72409;BME280;60402;48.082;11.628;2022-11-15T02:10:51;95123.31;;;1.21;100.00
72409;BME280;60402;48.082;11.628;2022-11-15T02:13:17;95192.69;;;1.65;100.00
72409;BME280;60402;48.082;11.628;2022-11-15T02:16:12;95196.66;;;1.68;100.00
72409;BME280;60402;48.082;11.628;2022-11-15T02:19:05;95174.34;;;1.57;100.00
72409;BME280;60402;48.082;11.628;2022-11-15T02:21:47;95170.72;;;1.49;100.00
72409;BME280;60402;48.082;11.628;2022-11-15T02:35:59;95181.94;;;1.71;99.71
72409;BME280;60402;48.082;11.628;2022-11-15T02:41:04;95172.38;;;1.65;99.33
72409;BME280;60402;48.082;11.628;2022-11-15T02:46:29;95166.44;;;1.70;98.59
72409;BME280;60402;48.082;11.628;2022-11-15T02:49:15;95133.78;;;1.56;97.65
72409;BME280;60402;48.082;11.628;2022-11-15T02:51:46;95142.53;;;1.65;98.37
72409;BME280;60402;48.082;11.628;2022-11-15T02:57:57;95175.16;;;1.65;98.42
72409;BME280;60402;48.082;11.628;2022-11-15T03:00:27;95129.75;;;1.39;98.59
72409;BME280;60402;48.082;11.628;2022-11-15T03:05:52;95138.09;;;1.43;97.41
72409;BME280;60402;48.082;11.628;2022-11-15T03:09:03;95163.19;;;1.57;97.50
72409;BME280;60402;48.082;11.628;2022-11-15T03:11:36;95061.19;;;0.88;97.93
72409;BME280;60402;48.082;11.628;2022-11-15T03:19:44;95128.50;;;1.22;100.00
72409;BME280;60402;48.082;11.628;2022-11-15T03:22:15;95086.66;;;0.94;100.00
72409;BME280;60402;48.082;11.628;2022-11-15T03:24:46;95063.97;;;0.81;98.70
72409;BME280;60402;48.082;11.628;2022-11-15T03:27:21;95108.19;;;1.11;99.34
72409;BME280;60402;48.082;11.628;2022-11-15T03:29:51;95159.97;;;1.37;99.96
72409;BME280;60402;48.082;11.628;2022-11-15T03:32:22;95119.69;;;1.02;100.00
72409;BME280;60402;48.082;11.628;2022-11-15T03:35:21;95142.00;;;1.17;100.00
72409;BME280;60402;48.082;11.628;2022-11-15T03:37:59;95107.28;;;0.82;100.00
72409;BME280;60402;48.082;11.628;2022-11-15T03:40:35;95096.44;;;0.59;100.00
72409;BME280;60402;48.082;11.628;2022-11-15T03:43:28;95156.16;;;0.83;100.00
72409;BME280;60402;48.082;11.628;2022-11-15T03:46:05;95083.59;;;0.37;100.00
72409;BME280;60402;48.082;11.628;2022-11-15T03:48:49;95130.72;;;0.85;100.00
72409;BME280;60402;48.082;11.628;2022-11-15T03:51:22;95078.59;;;0.64;100.00
72409;BME280;60402;48.082;11.628;2022-11-15T03:53:53;95109.25;;;0.78;100.00
72409;BME280;60402;48.082;11.628;2022-11-15T03:56:22;95084.97;;;0.68;100.00
72409;BME280;60402;48.082;11.628;2022-11-15T03:58:50;95042.00;;;0.47;100.00
72409;BME280;60402;48.082;11.628;2022-11-15T04:01:23;95064.66;;;0.57;100.00
72409;BME280;60402;48.082;11.628;2022-11-15T04:03:52;95050.31;;;0.51;100.00
72409;BME280;60402;48.082;11.628;2022-11-15T04:06:18;95068.63;;;0.59;100.00
72409;BME280;60402;48.082;11.628;2022-11-15T04:08:43;95042.28;;;0.32;100.00
72409;BME280;60402;48.082;11.628;2022-11-15T04:11:09;95047.09;;;0.38;100.00
72409;BME280;60402;48.082;11.628;2022-11-15T04:13:37;95024.84;;;0.35;100.00
72409;BME280;60402;48.082;11.628;2022-11-15T04:16:02;95067.88;;;0.62;100.00
72409;BME280;60402;48.082;11.628;2022-11-15T04:18:28;95084.59;;;0.73;100.00
72409;BME280;60402;48.082;11.628;2022-11-15T04:20:53;95103.00;;;0.99;100.00
72409;BME280;60402;48.082;11.628;2022-11-15T04:23:37;95071.94;;;0.93;99.54
72409;BME280;60402;48.082;11.628;2022-11-15T04:26:52;95093.47;;;1.07;98.88
72409;BME280;60402;48.082;11.628;2022-11-15T04:29:20;95024.97;;;0.70;98.92
72409;BME280;60402;48.082;11.628;2022-11-15T04:32:06;95066.41;;;0.97;99.86
72409;BME280;60402;48.082;11.628;2022-11-15T04:34:32;95018.63;;;0.66;100.00
72409;BME280;60402;48.082;11.628;2022-11-15T04:36:58;95018.22;;;0.64;99.45
72409;BME280;60402;48.082;11.628;2022-11-15T04:39:40;95033.75;;;0.76;99.35
72409;BME280;60402;48.082;11.628;2022-11-15T04:42:05;95071.16;;;0.96;100.00
72409;BME280;60402;48.082;11.628;2022-11-15T04:44:30;95070.75;;;0.91;99.76
72409;BME280;60402;48.082;11.628;2022-11-15T04:46:56;95068.78;;;0.98;98.64
72409;BME280;60402;48.082;11.628;2022-11-15T04:49:21;95062.75;;;0.79;98.27
72409;BME280;60402;48.082;11.628;2022-11-15T04:51:47;95060.75;;;0.72;98.50
72409;BME280;60402;48.082;11.628;2022-11-15T04:54:12;95045.97;;;0.54;98.59
72409;BME280;60402;48.082;11.628;2022-11-15T04:56:37;95063.94;;;0.74;99.34
72409;BME280;60402;48.082;11.628;2022-11-15T04:59:03;95060.75;;;0.72;99.14
72409;BME280;60402;48.082;11.628;2022-11-15T05:01:28;95094.19;;;0.93;98.96
72409;BME280;60402;48.082;11.628;2022-11-15T05:03:53;95044.03;;;0.58;99.48
72409;BME280;60402;48.082;11.628;2022-11-15T05:06:37;95063.50;;;0.68;99.54
72409;BME280;60402;48.082;11.628;2022-11-15T05:09:02;95062.31;;;0.66;99.87
72409;BME280;60402;48.082;11.628;2022-11-15T05:11:28;95081.06;;;0.83;100.00
72409;BME280;60402;48.082;11.628;2022-11-15T05:13:53;95032.09;;;0.54;100.00
72409;BME280;60402;48.082;11.628;2022-11-15T05:16:19;95067.50;;;0.74;100.00
72409;BME280;60402;48.082;11.628;2022-11-15T05:18:44;95061.56;;;0.72;100.00
72409;BME280;60402;48.082;11.628;2022-11-15T05:21:11;95079.47;;;0.82;100.00
72409;BME280;60402;48.082;11.628;2022-11-15T05:23:37;95076.28;;;0.84;100.00
72409;BME280;60402;48.082;11.628;2022-11-15T05:26:05;95012.63;;;0.54;100.00
72409;BME280;60402;48.082;11.628;2022-11-15T05:28:31;95044.47;;;0.74;100.00
72409;BME280;60402;48.082;11.628;2022-11-15T05:31:09;95061.16;;;0.74;100.00
72409;BME280;60402;48.082;11.628;2022-11-15T05:33:36;95051.56;;;0.64;100.00
72409;BME280;60402;48.082;11.628;2022-11-15T05:36:05;95008.56;;;0.37;100.00
72409;BME280;60402;48.082;11.628;2022-11-15T05:38:33;95028.03;;;0.40;100.00
72409;BME280;60402;48.082;11.628;2022-11-15T05:41:00;95043.19;;;0.54;100.00
72409;BME280;60402;48.082;11.628;2022-11-15T05:43:26;95045.59;;;0.55;100.00
72409;BME280;60402;48.082;11.628;2022-11-15T05:45:51;95029.31;;;0.54;100.00
72409;BME280;60402;48.082;11.628;2022-11-15T05:48:17;95027.72;;;0.53;100.00
72409;BME280;60402;48.082;11.628;2022-11-15T05:50:45;95028.53;;;0.64;100.00
72409;BME280;60402;48.082;11.628;2022-11-15T05:53:13;95025.78;;;0.67;100.00
72409;BME280;60402;48.082;11.628;2022-11-15T05:55:40;95032.16;;;0.75;100.00
72409;BME280;60402;48.082;11.628;2022-11-15T05:58:06;95038.13;;;0.77;100.00
72409;BME280;60402;48.082;11.628;2022-11-15T06:00:31;95059.59;;;0.84;99.69
72409;BME280;60402;48.082;11.628;2022-11-15T06:02:57;95053.25;;;0.83;100.00
72409;BME280;60402;48.082;11.628;2022-11-15T06:05:22;95017.75;;;0.51;99.65
72409;BME280;60402;48.082;11.628;2022-11-15T06:07:47;95016.16;;;0.47;99.88
72409;BME280;60402;48.082;11.628;2022-11-15T06:10:12;95030.06;;;0.47;99.96
72409;BME280;60402;48.082;11.628;2022-11-15T06:12:38;95035.63;;;0.43;100.00
72409;BME280;60402;48.082;11.628;2022-11-15T06:15:03;95013.31;;;0.33;100.00
72409;BME280;60402;48.082;11.628;2022-11-15T06:17:29;95017.69;;;0.37;100.00
72409;BME280;60402;48.082;11.628;2022-11-15T06:19:54;95027.72;;;0.53;100.00
72409;BME280;60402;48.082;11.628;2022-11-15T06:22:19;95001.47;;;0.46;100.00
72409;BME280;60402;48.082;11.628;2022-11-15T06:24:44;95002.25;;;0.47;100.00
72409;BME280;60402;48.082;11.628;2022-11-15T06:27:11;95027.41;;;0.75;100.00
72409;BME280;60402;48.082;11.628;2022-11-15T06:29:36;95029.38;;;0.79;99.60
72409;BME280;60402;48.082;11.628;2022-11-15T06:32:02;95011.06;;;0.70;100.00
72409;BME280;60402;48.082;11.628;2022-11-15T06:34:27;95027.78;;;0.74;99.96
72409;BME280;60402;48.082;11.628;2022-11-15T06:36:52;95036.53;;;0.72;100.00
72409;BME280;60402;48.082;11.628;2022-11-15T06:39:18;95021.75;;;0.54;100.00
72409;BME280;60402;48.082;11.628;2022-11-15T06:41:43;95021.78;;;0.58;100.00
72409;BME280;60402;48.082;11.628;2022-11-15T06:44:08;95026.19;;;0.69;99.74
72409;BME280;60402;48.082;11.628;2022-11-15T06:46:34;95029.75;;;0.73;99.41
72409;BME280;60402;48.082;11.628;2022-11-15T06:49:02;95001.06;;;0.51;99.75
72409;BME280;60402;48.082;11.628;2022-11-15T06:51:27;95025.00;;;0.74;99.72
72409;BME280;60402;48.082;11.628;2022-11-15T06:53:53;95021.44;;;0.73;99.69
72409;BME280;60402;48.082;11.628;2022-11-15T06:56:18;95030.63;;;0.92;99.67
72409;BME280;60402;48.082;11.628;2022-11-15T06:58:43;95005.16;;;0.75;99.36
72409;BME280;60402;48.082;11.628;2022-11-15T07:01:11;95023.84;;;0.93;98.22
72409;BME280;60402;48.082;11.628;2022-11-15T07:03:38;95014.72;;;0.92;98.65
72409;BME280;60402;48.082;11.628;2022-11-15T07:06:04;95017.94;;;1.01;97.84
72409;BME280;60402;48.082;11.628;2022-11-15T07:08:29;95046.59;;;1.31;97.71
72409;BME280;60402;48.082;11.628;2022-11-15T07:10:58;95045.03;;;1.44;95.99
72409;BME280;60402;48.082;11.628;2022-11-15T07:13:25;95037.47;;;1.44;97.35
72409;BME280;60402;48.082;11.628;2022-11-15T07:15:51;95018.41;;;1.46;96.55
72409;BME280;60402;48.082;11.628;2022-11-15T07:18:16;95045.06;;;1.76;96.17
72409;BME280;60402;48.082;11.628;2022-11-15T07:20:41;95023.94;;;1.93;95.19
72409;BME280;60402;48.082;11.628;2022-11-15T07:23:07;95032.94;;;2.68;93.20
72409;BME280;60402;48.082;11.628;2022-11-15T07:25:32;95038.94;;;3.40;91.08
72409;BME280;60402;48.082;11.628;2022-11-15T07:27:58;95014.28;;;4.25;86.60
72409;BME280;60402;48.082;11.628;2022-11-15T07:30:24;95032.25;;;5.26;82.34
72409;BME280;60402;48.082;11.628;2022-11-15T07:32:54;95039.72;;;5.94;78.88
72409;BME280;60402;48.082;11.628;2022-11-15T07:35:20;95041.94;;;7.33;73.84
72409;BME280;60402;48.082;11.628;2022-11-15T07:38:01;95022.47;;;8.89;66.75
72409;BME280;60402;48.082;11.628;2022-11-15T07:40:29;95023.59;;;10.26;61.65
72409;BME280;60402;48.082;11.628;2022-11-15T07:43:02;95028.22;;;11.90;56.22
72409;BME280;60402;48.082;11.628;2022-11-15T07:45:28;94982.84;;;14.04;49.83
72409;BME280;60402;48.082;11.628;2022-11-15T07:47:53;95019.25;;;15.68;45.33
72409;BME280;60402;48.082;11.628;2022-11-15T07:50:20;95016.69;;;16.65;42.75
72409;BME280;60402;48.082;11.628;2022-11-15T07:52:54;95024.97;;;16.63;41.07
72409;BME280;60402;48.082;11.628;2022-11-15T07:55:20;95024.88;;;13.82;44.11
72409;BME280;60402;48.082;11.628;2022-11-15T07:57:45;95027.91;;;13.78;46.27
72409;BME280;60402;48.082;11.628;2022-11-15T08:00:11;95021.78;;;15.27;44.02
72409;BME280;60402;48.082;11.628;2022-11-15T08:02:36;95006.28;;;14.23;43.45
72409;BME280;60402;48.082;11.628;2022-11-15T08:05:02;95013.06;;;13.84;44.80
72409;BME280;60402;48.082;11.628;2022-11-15T08:07:30;95007.41;;;14.83;43.69
72409;BME280;60402;48.082;11.628;2022-11-15T08:09:56;94994.47;;;16.19;40.17
72409;BME280;60402;48.082;11.628;2022-11-15T08:12:22;95011.91;;;15.76;40.56
72409;BME280;60402;48.082;11.628;2022-11-15T08:14:47;95006.47;;;16.08;39.97
72409;BME280;60402;48.082;11.628;2022-11-15T08:17:13;94983.16;;;15.50;41.59
72409;BME280;60402;48.082;11.628;2022-11-15T08:19:38;94989.94;;;20.27;37.09
72409;BME280;60402;48.082;11.628;2022-11-15T08:22:04;94990.75;;;20.38;32.56
72409;BME280;60402;48.082;11.628;2022-11-15T08:24:29;94983.44;;;20.09;33.20
72409;BME280;60402;48.082;11.628;2022-11-15T08:26:54;94984.63;;;21.84;31.29
72409;BME280;60402;48.082;11.628;2022-11-15T08:29:20;94974.50;;;19.79;34.04
72409;BME280;60402;48.082;11.628;2022-11-15T08:31:45;94982.50;;;18.24;36.47
72409;BME280;60402;48.082;11.628;2022-11-15T08:34:10;94960.22;;;20.58;33.55
72409;BME280;60402;48.082;11.628;2022-11-15T08:36:36;94964.34;;;19.78;33.36
72409;BME280;60402;48.082;11.628;2022-11-15T08:39:01;94962.44;;;23.11;29.93
72409;BME280;60402;48.082;11.628;2022-11-15T08:41:30;94964.75;;;23.37;29.70
72409;BME280;60402;48.082;11.628;2022-11-15T08:43:56;94953.56;;;26.32;26.00
72409;BME280;60402;48.082;11.628;2022-11-15T08:46:22;94969.47;;;27.15;26.15
72409;BME280;60402;48.082;11.628;2022-11-15T08:48:47;94952.38;;;27.97;24.26
72409;BME280;60402;48.082;11.628;2022-11-15T08:51:12;94963.66;;;28.08;24.15
72409;BME280;60402;48.082;11.628;2022-11-15T08:53:38;94942.75;;;27.37;25.21
72409;BME280;60402;48.082;11.628;2022-11-15T08:56:07;94946.44;;;29.38;22.12
72409;BME280;60402;48.082;11.628;2022-11-15T08:58:33;94931.41;;;29.88;22.71
72409;BME280;60402;48.082;11.628;2022-11-15T09:00:58;94956.50;;;28.61;23.90
72409;BME280;60402;48.082;11.628;2022-11-15T09:03:24;94958.56;;;30.46;22.00
72409;BME280;60402;48.082;11.628;2022-11-15T09:05:54;94965.88;;;31.20;20.87
72409;BME280;60402;48.082;11.628;2022-11-15T09:08:20;94959.69;;;31.16;21.97
72409;BME280;60402;48.082;11.628;2022-11-15T09:10:45;94969.34;;;31.26;20.16
72409;BME280;60402;48.082;11.628;2022-11-15T09:13:11;94963.63;;;29.97;21.40
72409;BME280;60402;48.082;11.628;2022-11-15T09:15:36;94953.59;;;29.52;22.55
72409;BME280;60402;48.082;11.628;2022-11-15T09:18:01;94964.94;;;30.12;22.35
72409;BME280;60402;48.082;11.628;2022-11-15T09:20:27;94954.06;;;30.85;21.33
72409;BME280;60402;48.082;11.628;2022-11-15T09:22:53;94942.75;;;31.81;19.41
72409;BME280;60402;48.082;11.628;2022-11-15T09:25:18;94962.94;;;29.20;21.19
72409;BME280;60402;48.082;11.628;2022-11-15T09:27:43;94956.44;;;27.65;23.47
72409;BME280;60402;48.082;11.628;2022-11-15T09:30:09;94937.31;;;28.06;22.16
72409;BME280;60402;48.082;11.628;2022-11-15T09:32:34;94931.06;;;26.80;23.19
72409;BME280;60402;48.082;11.628;2022-11-15T09:35:00;94927.31;;;22.58;29.20
72409;BME280;60402;48.082;11.628;2022-11-15T09:37:26;94932.03;;;20.39;32.39
72409;BME280;60402;48.082;11.628;2022-11-15T09:39:51;94929.22;;;18.27;36.79
72409;BME280;60402;48.082;11.628;2022-11-15T09:45:05;94946.41;;;13.61;47.88
72409;BME280;60402;48.082;11.628;2022-11-15T09:47:55;94910.56;;;14.29;46.10
72409;BME280;60402;48.082;11.628;2022-11-15T09:50:40;94926.97;;;13.59;49.24
72409;BME280;60402;48.082;11.628;2022-11-15T09:53:13;94895.06;;;11.71;55.51
72409;BME280;60402;48.082;11.628;2022-11-15T09:56:02;94907.69;;;12.20;53.93
72409;BME280;60402;48.082;11.628;2022-11-15T09:58:39;94902.34;;;11.41;57.29
72409;BME280;60402;48.082;11.628;2022-11-15T10:01:18;94905.72;;;11.58;57.00
72409;BME280;60402;48.082;11.628;2022-11-15T10:03:46;94863.34;;;11.36;55.48
72409;BME280;60402;48.082;11.628;2022-11-15T10:06:22;94905.50;;;11.12;58.62
72409;BME280;60402;48.082;11.628;2022-11-15T10:11:42;94894.19;;;10.90;58.85
72409;BME280;60402;48.082;11.628;2022-11-15T10:14:34;94901.28;;;10.51;59.22
72409;BME280;60402;48.082;11.628;2022-11-15T10:20:20;94896.91;;;10.50;57.94
72409;BME280;60402;48.082;11.628;2022-11-15T10:22:49;94846.22;;;10.34;57.23
72409;BME280;60402;48.082;11.628;2022-11-15T10:25:24;94873.16;;;10.47;57.66
72409;BME280;60402;48.082;11.628;2022-11-15T10:28:06;94873.88;;;10.39;57.91
72409;BME280;60402;48.082;11.628;2022-11-15T10:30:37;94865.09;;;10.37;57.77
72409;BME280;60402;48.082;11.628;2022-11-15T10:33:22;94865.03;;;10.49;57.58
72409;BME280;60402;48.082;11.628;2022-11-15T10:39:00;94861.69;;;10.64;57.37
72409;BME280;60402;48.082;11.628;2022-11-15T10:46:32;94847.16;;;10.74;56.68
72409;BME280;60402;48.082;11.628;2022-11-15T10:49:28;94788.88;;;10.24;55.94
72409;BME280;60402;48.082;11.628;2022-11-15T10:51:56;94774.56;;;10.18;55.43
72409;BME280;60402;48.082;11.628;2022-11-15T10:57:06;94824.56;;;10.53;57.15
72409;BME280;60402;48.082;11.628;2022-11-15T10:59:35;94805.06;;;10.45;58.25
72409;BME280;60402;48.082;11.628;2022-11-15T11:02:02;94826.72;;;10.70;56.80
72409;BME280;60402;48.082;11.628;2022-11-15T11:04:27;94820.47;;;10.75;57.42
72409;BME280;60402;48.082;11.628;2022-11-15T11:06:58;94819.69;;;10.75;56.05
72409;BME280;60402;48.082;11.628;2022-11-15T11:09:38;94819.75;;;10.84;56.85
72409;BME280;60402;48.082;11.628;2022-11-15T11:12:10;94814.22;;;10.81;56.28
72409;BME280;60402;48.082;11.628;2022-11-15T11:14:37;94807.03;;;10.89;56.78
72409;BME280;60402;48.082;11.628;2022-11-15T11:24:53;94781.75;;;11.25;54.55
72409;BME280;60402;48.082;11.628;2022-11-15T11:30:12;94781.66;;;11.47;54.02
72409;BME280;60402;48.082;11.628;2022-11-15T11:35:45;94778.81;;;11.47;54.31
72409;BME280;60402;48.082;11.628;2022-11-15T11:49:10;94747.91;;;11.71;52.97
72409;BME280;60402;48.082;11.628;2022-11-15T11:51:47;94754.06;;;11.79;53.15
72409;BME280;60402;48.082;11.628;2022-11-15T11:54:22;94724.66;;;11.76;53.36
72409;BME280;60402;48.082;11.628;2022-11-15T11:56:52;94687.38;;;11.69;53.63
72409;BME280;60402;48.082;11.628;2022-11-15T12:01:46;94684.69;;;11.65;53.43
72409;BME280;60402;48.082;11.628;2022-11-15T12:04:29;94726.41;;;11.92;53.46
72409;BME280;60402;48.082;11.628;2022-11-15T12:07:04;94699.03;;;12.08;52.30
72409;BME280;60402;48.082;11.628;2022-11-15T12:09:46;94692.13;;;11.90;52.69
72409;BME280;60402;48.082;11.628;2022-11-15T12:12:31;94719.97;;;12.19;52.83
72409;BME280;60402;48.082;11.628;2022-11-15T12:17:35;94712.84;;;12.42;52.15
72409;BME280;60402;48.082;11.628;2022-11-15T12:20:23;94651.50;;;12.21;52.06
72409;BME280;60402;48.082;11.628;2022-11-15T12:25:34;94693.47;;;12.32;51.42
72409;BME280;60402;48.082;11.628;2022-11-15T12:28:43;94706.03;;;12.49;51.42
72409;BME280;60402;48.082;11.628;2022-11-15T12:31:16;94708.59;;;12.38;51.18
72409;BME280;60402;48.082;11.628;2022-11-15T12:33:47;94699.56;;;12.58;51.29
72409;BME280;60402;48.082;11.628;2022-11-15T12:41:19;94704.59;;;12.63;50.32
72409;BME280;60402;48.082;11.628;2022-11-15T12:43:46;94692.81;;;12.46;51.21
72409;BME280;60402;48.082;11.628;2022-11-15T12:48:59;94688.41;;;12.45;51.43
72409;BME280;60402;48.082;11.628;2022-11-15T13:02:39;94678.94;;;12.57;51.26
72409;BME280;60402;48.082;11.628;2022-11-15T13:17:46;94640.63;;;12.71;50.63
72409;BME280;60402;48.082;11.628;2022-11-15T13:22:41;94679.84;;;13.05;51.90
72409;BME280;60402;48.082;11.628;2022-11-15T13:28:00;94666.06;;;12.89;50.91
72409;BME280;60402;48.082;11.628;2022-11-15T13:30:28;94659.88;;;13.00;51.71
72409;BME280;60402;48.082;11.628;2022-11-15T13:32:54;94656.50;;;12.77;51.47
72409;BME280;60402;48.082;11.628;2022-11-15T13:35:28;94660.16;;;12.69;52.16
72409;BME280;60402;48.082;11.628;2022-11-15T13:37:55;94655.03;;;12.91;51.99
72409;BME280;60402;48.082;11.628;2022-11-15T13:40:36;94658.69;;;12.83;52.74
72409;BME280;60402;48.082;11.628;2022-11-15T13:46:19;94652.81;;;12.95;52.75
72409;BME280;60402;48.082;11.628;2022-11-15T13:48:50;94618.50;;;12.51;53.12
72409;BME280;60402;48.082;11.628;2022-11-15T13:53:58;94637.97;;;13.00;52.26
72409;BME280;60402;48.082;11.628;2022-11-15T13:56:27;94613.91;;;12.63;53.20
72409;BME280;60402;48.082;11.628;2022-11-15T13:58:54;94631.28;;;12.79;52.36
72409;BME280;60402;48.082;11.628;2022-11-15T14:01:21;94632.59;;;13.02;53.45
72409;BME280;60402;48.082;11.628;2022-11-15T14:03:58;94592.75;;;12.73;53.22
72409;BME280;60402;48.082;11.628;2022-11-15T14:06:28;94607.13;;;12.60;53.21
72409;BME280;60402;48.082;11.628;2022-11-15T14:08:58;94646.78;;;12.69;53.73
72409;BME280;60402;48.082;11.628;2022-11-15T14:11:24;94649.28;;;12.76;54.14
72409;BME280;60402;48.082;11.628;2022-11-15T14:16:38;94639.97;;;12.34;54.80
72409;BME280;60402;48.082;11.628;2022-11-15T14:19:05;94648.66;;;12.30;54.86
72409;BME280;60402;48.082;11.628;2022-11-15T14:21:31;94656.34;;;12.30;55.80
72409;BME280;60402;48.082;11.628;2022-11-15T14:24:23;94652.28;;;12.21;56.13
72409;BME280;60402;48.082;11.628;2022-11-15T14:26:54;94659.22;;;12.20;56.54
72409;BME280;60402;48.082;11.628;2022-11-15T14:29:28;94661.72;;;12.18;57.32
72409;BME280;60402;48.082;11.628;2022-11-15T14:32:11;94650.44;;;12.09;57.74
72409;BME280;60402;48.082;11.628;2022-11-15T14:34:37;94638.78;;;11.98;58.73
72409;BME280;60402;48.082;11.628;2022-11-15T14:37:02;94640.69;;;11.92;57.93
72409;BME280;60402;48.082;11.628;2022-11-15T14:39:28;94652.94;;;11.98;58.14
72409;BME280;60402;48.082;11.628;2022-11-15T14:41:53;94644.63;;;11.85;58.69
72409;BME280;60402;48.082;11.628;2022-11-15T14:44:18;94645.88;;;11.75;59.48
72409;BME280;60402;48.082;11.628;2022-11-15T14:47:04;94660.00;;;11.75;59.48
72409;BME280;60402;48.082;11.628;2022-11-15T14:49:36;94584.09;;;11.18;60.46
72409;BME280;60402;48.082;11.628;2022-11-15T14:52:01;94608.13;;;11.23;60.45
72409;BME280;60402;48.082;11.628;2022-11-15T14:55:01;94606.41;;;11.07;61.03
72409;BME280;60402;48.082;11.628;2022-11-15T14:57:48;94593.19;;;10.95;61.48
72409;BME280;60402;48.082;11.628;2022-11-15T15:00:21;94598.38;;;10.87;62.08
72409;BME280;60402;48.082;11.628;2022-11-15T15:02:52;94585.13;;;10.75;63.08
72409;BME280;60402;48.082;11.628;2022-11-15T15:05:31;94617.66;;;10.80;63.92
72409;BME280;60402;48.082;11.628;2022-11-15T15:07:57;94632.38;;;10.65;64.67
72409;BME280;60402;48.082;11.628;2022-11-15T15:10:44;94614.88;;;10.48;64.49
72409;BME280;60402;48.082;11.628;2022-11-15T15:13:24;94646.19;;;10.63;64.32
72409;BME280;60402;48.082;11.628;2022-11-15T15:16:06;94617.81;;;10.36;65.43